createdAt,value
2022-11-04T00:01:18.620Z,5.28
2022-11-04T00:03:45.244Z,5.28
2022-11-04T00:06:11.708Z,5.26
2022-11-04T00:08:38.307Z,5.23
2022-11-04T00:11:05.298Z,5.21
2022-11-04T00:13:31.706Z,5.19
2022-11-04T00:16:01.759Z,5.18
2022-11-04T00:18:28.301Z,5.18
2022-11-04T00:20:56.791Z,5.17
2022-11-04T00:23:23.218Z,5.17
2022-11-04T00:25:49.758Z,5.26
2022-11-04T00:28:19.804Z,5.31
2022-11-04T00:30:46.322Z,5.34
2022-11-04T00:33:12.861Z,5.32
2022-11-04T00:35:39.310Z,5.33
2022-11-04T00:38:06.280Z,5.37
2022-11-04T00:40:32.991Z,5.39
2022-11-04T00:42:59.503Z,5.50
2022-11-04T00:45:25.918Z,5.69
2022-11-04T00:47:52.348Z,5.81
2022-11-04T00:50:22.413Z,5.93
2022-11-04T00:52:48.862Z,6.08
2022-11-04T00:55:15.506Z,6.30
2022-11-04T00:57:42.044Z,6.52
2022-11-04T01:00:09.208Z,6.62
2022-11-04T01:02:37.424Z,6.60
2022-11-04T01:05:04.840Z,6.51
2022-11-04T01:07:31.478Z,6.39
2022-11-04T01:09:58.025Z,6.29
2022-11-04T01:12:24.772Z,6.17
2022-11-04T01:14:51.191Z,6.07
2022-11-04T01:17:17.708Z,5.97
2022-11-04T01:19:44.189Z,5.91
2022-11-04T01:22:10.696Z,5.88
2022-11-04T01:24:37.263Z,5.83
2022-11-04T01:27:03.927Z,5.82
2022-11-04T01:29:30.453Z,5.82
2022-11-04T01:31:56.919Z,5.85
2022-11-04T01:34:23.433Z,5.87
2022-11-04T01:36:49.977Z,5.89
2022-11-04T01:39:16.533Z,6.04
2022-11-04T01:41:43.051Z,6.16
2022-11-04T01:44:47.582Z,6.19
2022-11-04T01:47:40.656Z,6.15
2022-11-04T01:50:13.374Z,6.13
2022-11-04T01:52:49.807Z,6.13
2022-11-04T01:55:21.056Z,6.14
2022-11-04T01:57:50.364Z,6.15
2022-11-04T02:00:18.129Z,6.17
2022-11-04T02:03:06.245Z,6.18
2022-11-04T02:05:33.621Z,6.19
2022-11-04T02:08:02.785Z,6.18
2022-11-04T02:10:31.122Z,6.21
2022-11-04T02:13:01.247Z,6.25
2022-11-04T02:15:33.532Z,6.29
2022-11-04T02:18:21.975Z,6.27
2022-11-04T02:21:09.921Z,6.23
2022-11-04T02:23:57.689Z,6.25
2022-11-04T02:26:44.786Z,6.28
2022-11-04T02:29:20.354Z,6.35
2022-11-04T02:31:58.820Z,6.42
2022-11-04T02:34:55.811Z,6.47
2022-11-04T02:37:38.803Z,6.64
2022-11-04T02:40:35.793Z,6.80
2022-11-04T02:43:08.243Z,6.99
2022-11-04T02:45:50.289Z,7.30
2022-11-04T02:48:48.255Z,7.39
2022-11-04T02:51:46.643Z,7.13
2022-11-04T02:54:20.851Z,6.97
2022-11-04T02:56:51.092Z,6.90
2022-11-04T02:59:23.734Z,6.91
2022-11-04T03:01:54.743Z,6.92
2022-11-04T03:04:30.890Z,6.88
2022-11-04T03:07:00.095Z,6.89
2022-11-04T03:09:30.131Z,6.89
2022-11-04T03:12:03.836Z,6.85
2022-11-04T03:14:39.489Z,6.84
2022-11-04T03:17:14.473Z,6.80
2022-11-04T03:19:52.966Z,6.78
2022-11-04T03:22:22.619Z,6.72
2022-11-04T03:24:50.050Z,6.64
2022-11-04T03:27:22.410Z,6.59
2022-11-04T03:30:06.870Z,6.60
2022-11-04T03:32:44.165Z,6.56
2022-11-04T03:35:14.149Z,6.56
2022-11-04T03:37:40.669Z,6.58
2022-11-04T03:40:08.406Z,6.55
2022-11-04T03:42:40.411Z,6.50
2022-11-04T03:45:08.456Z,6.43
2022-11-04T03:47:35.194Z,6.42
2022-11-04T03:50:28.061Z,6.43
2022-11-04T03:52:55.217Z,6.44
2022-11-04T03:55:28.777Z,6.42
2022-11-04T03:58:05.969Z,6.39
2022-11-04T04:00:45.475Z,6.37
2022-11-04T04:03:32.878Z,6.37
2022-11-04T04:06:09.418Z,6.36
2022-11-04T04:08:41.150Z,6.32
2022-11-04T04:11:30.994Z,6.26
2022-11-04T04:14:12.929Z,6.19
2022-11-04T04:16:43.810Z,6.15
2022-11-04T04:19:14.502Z,6.12
2022-11-04T04:21:54.002Z,6.12
2022-11-04T04:24:26.105Z,6.05
2022-11-04T04:26:55.407Z,5.96
2022-11-04T04:29:23.722Z,5.89
2022-11-04T04:31:51.681Z,5.82
2022-11-04T04:34:21.953Z,5.77
2022-11-04T04:37:02.704Z,5.72
2022-11-04T04:39:50.674Z,5.74
2022-11-04T04:42:18.182Z,5.78
2022-11-04T04:44:44.902Z,5.81
2022-11-04T04:47:17.157Z,5.78
2022-11-04T04:49:51.452Z,5.76
2022-11-04T04:52:19.428Z,5.74
2022-11-04T04:54:46.241Z,5.69
2022-11-04T04:57:12.883Z,5.64
2022-11-04T04:59:39.426Z,5.64
2022-11-04T05:02:05.986Z,5.69
2022-11-04T05:04:32.712Z,5.72
2022-11-04T05:06:59.262Z,5.73
2022-11-04T05:09:25.720Z,5.74
2022-11-04T05:11:52.146Z,5.77
2022-11-04T05:14:19.182Z,5.85
2022-11-04T05:16:45.720Z,5.88
2022-11-04T05:19:12.257Z,5.90
2022-11-04T05:21:38.800Z,5.94
2022-11-04T05:24:05.445Z,6.16
2022-11-04T05:26:31.988Z,6.41
2022-11-04T05:28:58.525Z,6.71
2022-11-04T05:31:25.067Z,7.03
2022-11-04T05:33:51.514Z,7.37
2022-11-04T05:36:18.079Z,7.71
2022-11-04T05:38:50.461Z,7.94
2022-11-04T05:41:17.281Z,8.12
2022-11-04T05:43:43.803Z,8.27
2022-11-04T05:46:10.222Z,8.35
2022-11-04T05:48:40.492Z,8.44
2022-11-04T05:51:07.434Z,8.56
2022-11-04T05:53:33.978Z,8.66
2022-11-04T05:56:00.466Z,8.75
2022-11-04T05:58:27.059Z,8.84
2022-11-04T06:00:53.697Z,8.92
2022-11-04T06:03:20.215Z,9.01
2022-11-04T06:05:46.982Z,9.12
2022-11-04T06:08:13.371Z,9.23
2022-11-04T06:10:39.861Z,9.34
2022-11-04T06:13:06.403Z,9.44
2022-11-04T06:15:32.836Z,9.56
2022-11-04T06:17:59.254Z,9.60
2022-11-04T06:20:25.820Z,9.66
2022-11-04T06:22:52.353Z,9.72
2022-11-04T06:25:18.856Z,9.77
2022-11-04T06:27:45.432Z,9.78
2022-11-04T06:30:12.279Z,9.78
2022-11-04T06:32:38.786Z,9.80
2022-11-04T06:35:05.970Z,9.83
2022-11-04T06:37:32.389Z,9.84
2022-11-04T06:39:58.845Z,9.86
2022-11-04T06:42:25.284Z,9.88
2022-11-04T06:44:51.776Z,9.90
2022-11-04T06:47:23.570Z,9.97
2022-11-04T06:49:51.259Z,10.06
2022-11-04T06:52:17.690Z,10.17
2022-11-04T06:54:44.238Z,10.25
2022-11-04T06:57:11.492Z,10.33
2022-11-04T06:59:38.033Z,10.39
2022-11-04T07:02:04.809Z,10.46
2022-11-04T07:04:31.629Z,10.54
2022-11-04T07:06:58.062Z,10.62
2022-11-04T07:09:24.491Z,10.70
2022-11-04T07:11:51.146Z,10.77
2022-11-04T07:14:17.624Z,10.85
2022-11-04T07:16:44.048Z,10.93
2022-11-04T07:19:10.584Z,11.05
2022-11-04T07:21:37.204Z,11.20
2022-11-04T07:24:03.770Z,11.37
2022-11-04T07:26:30.254Z,11.51
2022-11-04T07:28:56.719Z,11.64
2022-11-04T07:31:23.828Z,11.82
2022-11-04T07:33:50.447Z,12.06
2022-11-04T07:36:18.382Z,12.34
2022-11-04T07:38:45.300Z,12.81
2022-11-04T07:41:12.583Z,13.15
2022-11-04T07:43:39.427Z,13.42
2022-11-04T07:46:12.517Z,13.66
2022-11-04T07:48:39.426Z,13.84
2022-11-04T07:51:08.288Z,13.92
2022-11-04T07:53:35.426Z,13.90
2022-11-04T07:56:10.179Z,13.87
2022-11-04T07:58:36.691Z,13.90
2022-11-04T08:01:06.846Z,13.94
2022-11-04T08:03:34.456Z,13.97
2022-11-04T08:06:02.856Z,14.03
2022-11-04T08:08:29.574Z,14.07
2022-11-04T08:11:01.156Z,14.10
2022-11-04T08:13:28.718Z,14.23
2022-11-04T08:15:55.262Z,14.49
2022-11-04T08:18:21.902Z,14.77
2022-11-04T08:20:50.491Z,15.21
2022-11-04T08:23:17.847Z,15.52
2022-11-04T08:25:45.220Z,15.70
2022-11-04T08:28:11.849Z,15.73
2022-11-04T08:30:38.757Z,16.08
2022-11-04T08:33:05.201Z,16.08
2022-11-04T08:35:33.241Z,15.77
2022-11-04T08:38:02.457Z,15.88
2022-11-04T08:40:28.948Z,15.85
2022-11-04T08:42:55.487Z,15.76
2022-11-04T08:45:21.930Z,15.54
2022-11-04T08:47:48.362Z,15.32
2022-11-04T08:50:14.886Z,15.34
2022-11-04T08:52:41.444Z,15.57
2022-11-04T08:55:08.678Z,15.62
2022-11-04T08:57:35.127Z,15.69
2022-11-04T09:00:02.197Z,15.65
2022-11-04T09:02:28.737Z,15.59
2022-11-04T09:04:55.183Z,15.64
2022-11-04T09:07:21.716Z,15.68
2022-11-04T09:09:48.155Z,15.84
2022-11-04T09:12:14.799Z,15.78
2022-11-04T09:14:41.340Z,15.65
2022-11-04T09:17:07.885Z,15.70
2022-11-04T09:19:34.420Z,15.82
2022-11-04T09:22:00.858Z,16.03
2022-11-04T09:24:27.502Z,16.06
2022-11-04T09:26:54.349Z,16.15
2022-11-04T09:29:20.788Z,16.23
2022-11-04T09:31:47.224Z,16.22
2022-11-04T09:34:13.663Z,16.28
2022-11-04T09:36:40.101Z,16.37
2022-11-04T09:39:06.648Z,16.38
2022-11-04T09:42:05.583Z,16.41
2022-11-04T09:45:20.083Z,16.59
2022-11-04T09:47:44.138Z,16.67
2022-11-04T09:50:21.056Z,16.70
2022-11-04T09:53:13.144Z,16.77
2022-11-04T09:55:49.423Z,16.86
2022-11-04T09:58:16.052Z,16.80
2022-11-04T10:00:48.423Z,16.69
2022-11-04T10:03:37.883Z,16.49
2022-11-04T10:06:30.647Z,16.38
2022-11-04T10:09:13.618Z,16.36
2022-11-04T10:11:45.835Z,16.36
2022-11-04T10:14:40.150Z,16.31
2022-11-04T10:17:25.252Z,16.32
2022-11-04T10:20:08.945Z,16.28
2022-11-04T10:22:48.083Z,16.24
2022-11-04T10:25:21.649Z,16.27
2022-11-04T10:27:49.962Z,16.29
2022-11-04T10:30:20.310Z,16.24
2022-11-04T10:33:11.747Z,16.17
2022-11-04T10:35:45.249Z,16.01
2022-11-04T10:38:29.378Z,15.90
2022-11-04T10:40:56.192Z,15.89
2022-11-04T10:43:32.748Z,15.94
2022-11-04T10:46:05.796Z,16.00
2022-11-04T10:48:41.479Z,16.08
2022-11-04T10:51:08.084Z,16.23
2022-11-04T10:53:34.622Z,16.35
2022-11-04T10:56:17.796Z,16.44
2022-11-04T10:58:48.287Z,16.45
2022-11-04T11:01:31.785Z,16.34
2022-11-04T11:03:59.378Z,16.27
2022-11-04T11:06:30.384Z,16.25
2022-11-04T11:08:58.469Z,16.24
2022-11-04T11:11:41.469Z,16.23
2022-11-04T11:14:32.239Z,16.31
2022-11-04T11:17:19.026Z,16.34
2022-11-04T11:19:45.467Z,16.34
2022-11-04T11:22:32.419Z,16.34
2022-11-04T11:25:25.911Z,16.27
2022-11-04T11:27:57.554Z,16.24
2022-11-04T11:31:08.541Z,16.17
2022-11-04T11:34:19.235Z,16.02
2022-11-04T11:37:30.190Z,15.95
2022-11-04T11:40:25.392Z,15.97
2022-11-04T11:42:52.015Z,15.96
2022-11-04T11:45:20.847Z,15.97
2022-11-04T11:47:47.389Z,15.95
2022-11-04T11:50:18.336Z,15.91
2022-11-04T11:52:48.779Z,15.95
2022-11-04T11:55:28.879Z,15.98
2022-11-04T12:01:25.636Z,16.00
2022-11-04T12:10:10.059Z,16.04
2022-11-04T12:12:59.266Z,16.05
2022-11-04T12:15:42.571Z,16.09
2022-11-04T12:18:49.507Z,16.09
2022-11-04T12:21:23.856Z,16.21
2022-11-04T12:23:55.813Z,16.30
2022-11-04T12:26:56.854Z,16.36
2022-11-04T12:29:30.457Z,16.41
2022-11-04T12:32:10.317Z,16.46
2022-11-04T12:34:54.647Z,16.52
2022-11-04T12:37:27.246Z,16.56
2022-11-04T12:40:11.410Z,16.51
2022-11-04T12:42:51.459Z,16.37
2022-11-04T12:45:29.965Z,16.27
2022-11-04T12:48:06.252Z,16.17
2022-11-04T12:50:50.965Z,16.08
2022-11-04T12:53:32.820Z,16.01
2022-11-04T12:56:14.717Z,15.95
2022-11-04T12:58:56.161Z,15.89
2022-11-04T13:01:37.191Z,15.86
2022-11-04T13:04:07.112Z,15.83
2022-11-04T13:06:53.150Z,15.76
2022-11-04T13:09:49.445Z,15.66
2022-11-04T13:12:23.302Z,15.53
2022-11-04T13:15:03.115Z,15.47
2022-11-04T13:17:33.693Z,15.43
2022-11-04T13:20:17.289Z,15.39
2022-11-04T13:22:47.245Z,15.33
2022-11-04T13:25:19.964Z,15.27
2022-11-04T13:27:48.073Z,15.18
2022-11-04T13:30:23.168Z,15.12
2022-11-04T13:33:02.888Z,15.05
2022-11-04T13:36:02.070Z,14.99
2022-11-04T13:38:37.012Z,14.93
2022-11-04T13:41:25.769Z,14.87
2022-11-04T13:43:55.551Z,14.82
2022-11-04T13:46:22.023Z,14.79
2022-11-04T13:49:36.339Z,14.73
2022-11-04T13:52:13.379Z,14.66
2022-11-04T13:54:43.270Z,14.60
2022-11-04T13:57:14.860Z,14.52
2022-11-04T13:59:42.207Z,14.45
2022-11-04T14:02:12.956Z,14.41
2022-11-04T14:04:44.424Z,14.35
2022-11-04T14:07:14.134Z,14.29
2022-11-04T14:09:43.695Z,14.22
2022-11-04T14:12:10.197Z,14.17
2022-11-04T14:14:42.055Z,14.11
2022-11-04T14:17:33.508Z,14.05
2022-11-04T14:20:01.349Z,13.99
2022-11-04T14:22:44.481Z,13.92
2022-11-04T14:25:25.767Z,13.85
2022-11-04T14:28:01.420Z,13.80
2022-11-04T14:30:35.879Z,13.75
2022-11-04T14:33:20.516Z,13.69
2022-11-04T14:35:47.054Z,13.64
2022-11-04T14:38:32.897Z,13.58
2022-11-04T14:41:20.685Z,13.49
2022-11-04T14:43:48.567Z,13.40
2022-11-04T14:46:22.351Z,13.31
2022-11-04T14:48:55.307Z,13.20
2022-11-04T14:51:29.448Z,13.13
2022-11-04T14:54:04.320Z,13.04
2022-11-04T14:56:30.999Z,12.94
2022-11-04T14:59:06.754Z,12.88
2022-11-04T15:01:40.597Z,12.82
2022-11-04T15:04:18.385Z,12.78
2022-11-04T15:06:55.541Z,12.75
2022-11-04T15:09:25.464Z,12.70
2022-11-04T15:12:02.029Z,12.67
2022-11-04T15:14:28.576Z,12.64
2022-11-04T15:16:58.621Z,12.61
2022-11-04T15:19:31.948Z,12.56
2022-11-04T15:22:00.653Z,12.52
2022-11-04T15:24:28.276Z,12.49
2022-11-04T15:27:01.326Z,12.46
2022-11-04T15:29:27.761Z,12.42
2022-11-04T15:31:59.973Z,12.38
2022-11-04T15:34:29.652Z,12.33
2022-11-04T15:36:59.609Z,12.27
2022-11-04T15:39:30.437Z,12.19
2022-11-04T15:42:09.137Z,12.13
2022-11-04T15:44:37.712Z,12.06
2022-11-04T15:47:20.886Z,12.01
2022-11-04T15:49:49.524Z,11.93
2022-11-04T15:52:24.586Z,11.86
2022-11-04T15:54:53.406Z,11.80
2022-11-04T15:57:27.638Z,11.76
2022-11-04T16:00:05.848Z,11.71
2022-11-04T16:02:35.222Z,11.67
2022-11-04T16:05:30.031Z,11.64
2022-11-04T16:08:18.879Z,11.64
2022-11-04T16:10:45.627Z,11.58
2022-11-04T16:13:14.872Z,11.52
2022-11-04T16:15:47.857Z,11.44
2022-11-04T16:18:34.985Z,11.39
2022-11-04T16:21:07.421Z,11.34
2022-11-04T16:23:48.962Z,11.29
2022-11-04T16:26:15.909Z,11.24
2022-11-04T16:28:43.574Z,11.25
2022-11-04T16:31:22.697Z,11.29
2022-11-04T16:33:50.487Z,11.35
2022-11-04T16:36:17.734Z,11.36
2022-11-04T16:38:44.273Z,11.38
2022-11-04T16:41:11.217Z,11.37
2022-11-04T16:43:41.488Z,11.32
2022-11-04T16:46:07.927Z,11.25
2022-11-04T16:48:34.435Z,11.16
2022-11-04T16:51:00.869Z,11.13
2022-11-04T16:53:27.312Z,11.09
2022-11-04T16:55:55.376Z,11.03
2022-11-04T16:58:22.954Z,10.97
2022-11-04T17:00:49.868Z,10.92
2022-11-04T17:03:19.530Z,10.87
2022-11-04T17:05:46.010Z,10.82
2022-11-04T17:08:12.905Z,10.77
2022-11-04T17:10:39.759Z,10.70
2022-11-04T17:13:06.298Z,10.66
2022-11-04T17:15:32.775Z,10.59
2022-11-04T17:17:59.318Z,10.56
2022-11-04T17:20:25.804Z,10.53
2022-11-04T17:22:52.338Z,10.51
2022-11-04T17:25:24.737Z,10.51
2022-11-04T17:27:51.545Z,10.53
2022-11-04T17:30:19.663Z,10.50
2022-11-04T17:32:46.768Z,10.48
2022-11-04T17:35:14.398Z,10.44
2022-11-04T17:37:40.923Z,10.42
2022-11-04T17:40:12.360Z,10.40
2022-11-04T17:42:38.920Z,10.40
2022-11-04T17:45:05.668Z,10.39
2022-11-04T17:47:35.610Z,10.34
2022-11-04T17:50:03.636Z,10.29
2022-11-04T17:52:30.160Z,10.26
2022-11-04T17:54:56.640Z,10.23
2022-11-04T17:57:23.180Z,10.20
2022-11-04T17:59:49.714Z,10.18
2022-11-04T18:02:16.309Z,10.15
2022-11-04T18:04:45.563Z,10.10
2022-11-04T18:07:12.527Z,10.05
2022-11-04T18:09:39.052Z,10.02
2022-11-04T18:12:06.874Z,10.00
2022-11-04T18:14:33.359Z,9.99
2022-11-04T18:16:59.903Z,10.00
2022-11-04T18:19:27.161Z,10.03
2022-11-04T18:21:53.801Z,10.03
2022-11-04T18:24:20.430Z,10.04
2022-11-04T18:26:46.983Z,10.06
2022-11-04T18:29:13.952Z,10.08
2022-11-04T18:31:47.681Z,10.08
2022-11-04T18:34:16.790Z,10.08
2022-11-04T18:36:43.902Z,10.07
2022-11-04T18:39:13.541Z,10.06
2022-11-04T18:41:40.768Z,10.05
2022-11-04T18:44:08.632Z,10.07
2022-11-04T18:46:35.381Z,10.09
2022-11-04T18:49:03.559Z,10.21
2022-11-04T18:51:30.095Z,10.47
2022-11-04T18:53:56.525Z,10.73
2022-11-04T18:56:23.584Z,10.94
2022-11-04T18:58:50.433Z,11.19
2022-11-04T19:01:22.118Z,11.40
2022-11-04T19:03:49.690Z,11.52
2022-11-04T19:06:20.318Z,11.58
2022-11-04T19:08:47.262Z,11.62
2022-11-04T19:11:26.174Z,11.67
2022-11-04T19:13:55.655Z,11.74
2022-11-04T19:16:22.743Z,11.81
2022-11-04T19:18:50.209Z,11.84
2022-11-04T19:21:18.823Z,11.86
2022-11-04T19:23:45.418Z,11.87
2022-11-04T19:26:16.792Z,11.86
2022-11-04T19:28:48.441Z,11.90
2022-11-04T19:31:27.648Z,11.88
2022-11-04T19:33:56.895Z,11.85
2022-11-04T19:36:24.781Z,11.79
2022-11-04T19:38:56.019Z,11.70
2022-11-04T19:41:23.186Z,11.61
2022-11-04T19:43:49.612Z,11.53
2022-11-04T19:46:16.151Z,11.52
2022-11-04T19:48:42.589Z,11.56
2022-11-04T19:51:12.667Z,11.62
2022-11-04T19:53:39.361Z,11.69
2022-11-04T19:56:06.627Z,11.75
2022-11-04T19:58:33.895Z,11.82
2022-11-04T20:01:07.249Z,11.87
2022-11-04T20:03:33.813Z,11.92
2022-11-04T20:06:00.352Z,11.95
2022-11-04T20:08:26.895Z,11.96
2022-11-04T20:10:53.533Z,11.95
2022-11-04T20:13:20.302Z,11.93
2022-11-04T20:15:46.910Z,11.93
2022-11-04T20:18:13.537Z,11.94
2022-11-04T20:20:40.431Z,11.94
2022-11-04T20:23:07.351Z,11.94
2022-11-04T20:25:33.784Z,11.90
2022-11-04T20:28:02.182Z,11.86
2022-11-04T20:30:28.720Z,11.83
2022-11-04T20:32:55.257Z,11.79
2022-11-04T20:35:21.803Z,11.75
2022-11-04T20:37:48.480Z,11.71
2022-11-04T20:40:15.147Z,11.69
2022-11-04T20:42:41.636Z,11.67
2022-11-04T20:45:08.322Z,11.65
2022-11-04T20:47:34.815Z,11.61
2022-11-04T20:50:01.447Z,11.58
2022-11-04T20:52:27.990Z,11.55
2022-11-04T20:54:54.533Z,11.52
2022-11-04T20:57:21.071Z,11.51
2022-11-04T20:59:47.710Z,11.53
2022-11-04T21:02:14.368Z,11.54
2022-11-04T21:04:40.997Z,11.55
2022-11-04T21:07:07.475Z,11.57
2022-11-04T21:09:33.930Z,11.59
2022-11-04T21:12:00.518Z,11.60
2022-11-04T21:14:27.162Z,11.60
2022-11-04T21:16:53.700Z,11.60
2022-11-04T21:19:20.139Z,11.59
2022-11-04T21:21:46.790Z,11.59
2022-11-04T21:24:15.411Z,11.59
2022-11-04T21:26:43.075Z,11.63
2022-11-04T21:29:13.223Z,11.61
2022-11-04T21:31:39.896Z,11.57
2022-11-04T21:34:06.357Z,11.52
2022-11-04T21:36:33.108Z,11.46
2022-11-04T21:39:00.284Z,11.45
2022-11-04T21:41:29.567Z,11.42
2022-11-04T21:44:01.365Z,11.37
2022-11-04T21:46:30.222Z,11.31
2022-11-04T21:48:57.414Z,11.29
2022-11-04T21:51:26.580Z,11.27
2022-11-04T21:53:53.230Z,11.24
2022-11-04T21:56:25.607Z,11.24
2022-11-04T21:58:53.339Z,11.27
2022-11-04T22:01:23.145Z,11.30
2022-11-04T22:03:55.118Z,11.29
2022-11-04T22:06:22.175Z,11.30
2022-11-04T22:08:50.833Z,11.32
2022-11-04T22:11:21.127Z,11.31
2022-11-04T22:13:47.613Z,11.29
2022-11-04T22:16:20.427Z,11.26
2022-11-04T22:18:48.507Z,11.25
2022-11-04T22:21:17.842Z,11.28
2022-11-04T22:23:45.025Z,11.34
2022-11-04T22:26:22.896Z,11.40
2022-11-04T22:28:50.152Z,11.43
2022-11-04T22:31:20.910Z,11.42
2022-11-04T22:33:47.582Z,11.48
2022-11-04T22:36:14.787Z,11.56
2022-11-04T22:38:42.664Z,11.68
2022-11-04T22:41:13.165Z,11.76
2022-11-04T22:43:40.141Z,11.78
2022-11-04T22:46:16.934Z,11.78
2022-11-04T22:48:43.465Z,11.77
2022-11-04T22:51:10.821Z,11.76
2022-11-04T22:53:38.626Z,11.76
2022-11-04T22:56:07.911Z,11.74
2022-11-04T22:58:34.952Z,11.72
2022-11-04T23:01:05.935Z,11.71
2022-11-04T23:03:32.799Z,11.72
2022-11-04T23:06:02.803Z,11.70
2022-11-04T23:08:30.986Z,11.64
2022-11-04T23:11:01.109Z,11.59
2022-11-04T23:13:27.596Z,11.58
2022-11-04T23:15:54.347Z,11.58
2022-11-04T23:18:20.889Z,11.59
2022-11-04T23:20:47.306Z,11.51
2022-11-04T23:23:13.867Z,11.40
2022-11-04T23:25:40.380Z,11.32
2022-11-04T23:28:06.840Z,11.25
2022-11-04T23:30:36.301Z,11.19
2022-11-04T23:33:12.401Z,11.15
2022-11-04T23:35:49.506Z,11.13
2022-11-04T23:38:16.864Z,11.10
2022-11-04T23:40:44.225Z,11.09
2022-11-04T23:43:10.928Z,11.04
2022-11-04T23:45:37.816Z,10.98
2022-11-04T23:48:04.458Z,10.92
2022-11-04T23:50:34.375Z,10.87
2022-11-04T23:53:03.001Z,10.83
2022-11-04T23:55:30.266Z,10.80
2022-11-04T23:57:56.871Z,10.76
